sensor_id;sensor_type;location;lat;lon;timestamp;temperature;humidity
20432;DHT22;10375;49.136;10.366;2023-02-11T00:01:21;-3.80;99.90
20432;DHT22;10375;49.136;10.366;2023-02-11T00:03:49;-3.80;99.90
20432;DHT22;10375;49.136;10.366;2023-02-11T00:06:16;-3.80;99.90
20432;DHT22;10375;49.136;10.366;2023-02-11T00:08:43;-3.90;99.90
20432;DHT22;10375;49.136;10.366;2023-02-11T00:11:15;-3.80;99.90
20432;DHT22;10375;49.136;10.366;2023-02-11T00:13:44;-3.90;99.90
20432;DHT22;10375;49.136;10.366;2023-02-11T00:16:16;-3.90;99.90
20432;DHT22;10375;49.136;10.366;2023-02-11T00:18:44;-4.00;99.90
20432;DHT22;10375;49.136;10.366;2023-02-11T00:21:16;-4.00;99.90
20432;DHT22;10375;49.136;10.366;2023-02-11T00:23:44;-4.00;99.90
20432;DHT22;10375;49.136;10.366;2023-02-11T00:26:20;-4.10;99.90
20432;DHT22;10375;49.136;10.366;2023-02-11T00:28:48;-4.20;99.90
20432;DHT22;10375;49.136;10.366;2023-02-11T00:31:17;-4.10;99.90
20432;DHT22;10375;49.136;10.366;2023-02-11T00:33:45;-4.10;99.90
20432;DHT22;10375;49.136;10.366;2023-02-11T00:36:14;-4.10;99.90
20432;DHT22;10375;49.136;10.366;2023-02-11T00:38:43;-4.10;99.90
20432;DHT22;10375;49.136;10.366;2023-02-11T00:41:12;-4.00;99.90
20432;DHT22;10375;49.136;10.366;2023-02-11T00:43:39;-4.10;99.90
20432;DHT22;10375;49.136;10.366;2023-02-11T00:46:07;-4.00;99.90
20432;DHT22;10375;49.136;10.366;2023-02-11T00:48:34;-4.00;99.90
20432;DHT22;10375;49.136;10.366;2023-02-11T00:51:02;-4.10;99.90
20432;DHT22;10375;49.136;10.366;2023-02-11T00:53:30;-4.10;99.90
20432;DHT22;10375;49.136;10.366;2023-02-11T00:55:57;-4.10;99.90
20432;DHT22;10375;49.136;10.366;2023-02-11T00:58:24;-4.10;99.90
20432;DHT22;10375;49.136;10.366;2023-02-11T01:00:52;-4.10;99.90
20432;DHT22;10375;49.136;10.366;2023-02-11T01:03:19;-4.10;99.90
20432;DHT22;10375;49.136;10.366;2023-02-11T01:05:47;-4.00;99.90
20432;DHT22;10375;49.136;10.366;2023-02-11T01:08:14;-4.00;99.90
20432;DHT22;10375;49.136;10.366;2023-02-11T01:10:41;-3.90;99.90
20432;DHT22;10375;49.136;10.366;2023-02-11T01:13:10;-3.90;99.90
20432;DHT22;10375;49.136;10.366;2023-02-11T01:15:37;-3.80;99.90
20432;DHT22;10375;49.136;10.366;2023-02-11T01:18:04;-3.80;99.90
20432;DHT22;10375;49.136;10.366;2023-02-11T01:20:32;-3.70;99.90
20432;DHT22;10375;49.136;10.366;2023-02-11T01:22:59;-3.70;99.90
20432;DHT22;10375;49.136;10.366;2023-02-11T01:25:26;-3.70;99.90
20432;DHT22;10375;49.136;10.366;2023-02-11T01:27:53;-3.60;99.90
20432;DHT22;10375;49.136;10.366;2023-02-11T01:30:20;-3.60;99.90
20432;DHT22;10375;49.136;10.366;2023-02-11T01:32:47;-3.60;99.90
20432;DHT22;10375;49.136;10.366;2023-02-11T01:35:14;-3.60;99.90
20432;DHT22;10375;49.136;10.366;2023-02-11T01:37:41;-3.60;99.90
20432;DHT22;10375;49.136;10.366;2023-02-11T01:40:13;-3.70;99.90
20432;DHT22;10375;49.136;10.366;2023-02-11T01:42:41;-3.60;99.90
20432;DHT22;10375;49.136;10.366;2023-02-11T01:48:26;-3.60;99.90
20432;DHT22;10375;49.136;10.366;2023-02-11T01:51:18;-3.60;99.90
20432;DHT22;10375;49.136;10.366;2023-02-11T01:53:47;-3.60;99.90
20432;DHT22;10375;49.136;10.366;2023-02-11T01:56:37;-3.50;99.90
20432;DHT22;10375;49.136;10.366;2023-02-11T01:59:32;-3.50;99.90
20432;DHT22;10375;49.136;10.366;2023-02-11T02:02:05;-3.50;99.90
20432;DHT22;10375;49.136;10.366;2023-02-11T02:04:39;-3.50;99.90
20432;DHT22;10375;49.136;10.366;2023-02-11T02:07:13;-3.40;99.90
20432;DHT22;10375;49.136;10.366;2023-02-11T02:09:47;-3.30;99.90
20432;DHT22;10375;49.136;10.366;2023-02-11T02:12:15;-3.30;99.90
20432;DHT22;10375;49.136;10.366;2023-02-11T02:14:42;-3.30;99.90
20432;DHT22;10375;49.136;10.366;2023-02-11T02:17:36;-3.20;99.90
20432;DHT22;10375;49.136;10.366;2023-02-11T02:26:18;-2.90;99.90
20432;DHT22;10375;49.136;10.366;2023-02-11T02:29:28;-2.90;99.90
20432;DHT22;10375;49.136;10.366;2023-02-11T02:32:29;-2.90;99.90
20432;DHT22;10375;49.136;10.366;2023-02-11T02:35:30;-2.80;99.90
20432;DHT22;10375;49.136;10.366;2023-02-11T02:41:15;-2.60;99.90
20432;DHT22;10375;49.136;10.366;2023-02-11T02:43:45;-2.50;99.90
20432;DHT22;10375;49.136;10.366;2023-02-11T02:48:47;-2.60;99.90
20432;DHT22;10375;49.136;10.366;2023-02-11T03:02:55;-2.70;99.90
20432;DHT22;10375;49.136;10.366;2023-02-11T03:10:33;-2.70;99.90
20432;DHT22;10375;49.136;10.366;2023-02-11T03:13:02;-2.80;99.90
20432;DHT22;10375;49.136;10.366;2023-02-11T03:15:35;-2.90;99.90
20432;DHT22;10375;49.136;10.366;2023-02-11T03:18:05;-2.90;99.90
20432;DHT22;10375;49.136;10.366;2023-02-11T03:20:35;-2.90;99.90
20432;DHT22;10375;49.136;10.366;2023-02-11T03:23:36;-2.90;99.90
20432;DHT22;10375;49.136;10.366;2023-02-11T03:26:15;-2.90;99.90
20432;DHT22;10375;49.136;10.366;2023-02-11T03:31:31;-2.90;99.90
20432;DHT22;10375;49.136;10.366;2023-02-11T03:34:10;-2.90;99.90
20432;DHT22;10375;49.136;10.366;2023-02-11T03:36:50;-2.80;99.90
20432;DHT22;10375;49.136;10.366;2023-02-11T03:39:26;-2.80;99.90
20432;DHT22;10375;49.136;10.366;2023-02-11T03:41:55;-2.80;99.90
20432;DHT22;10375;49.136;10.366;2023-02-11T03:44:27;-2.70;99.90
20432;DHT22;10375;49.136;10.366;2023-02-11T03:46:55;-2.60;99.90
20432;DHT22;10375;49.136;10.366;2023-02-11T03:49:24;-2.60;99.90
20432;DHT22;10375;49.136;10.366;2023-02-11T03:51:53;-2.50;99.90
20432;DHT22;10375;49.136;10.366;2023-02-11T03:54:27;-2.40;99.90
20432;DHT22;10375;49.136;10.366;2023-02-11T03:56:57;-2.40;99.90
20432;DHT22;10375;49.136;10.366;2023-02-11T03:59:25;-2.30;99.90
20432;DHT22;10375;49.136;10.366;2023-02-11T04:01:52;-2.30;99.90
20432;DHT22;10375;49.136;10.366;2023-02-11T04:04:21;-2.20;99.90
20432;DHT22;10375;49.136;10.366;2023-02-11T04:06:48;-2.10;99.90
20432;DHT22;10375;49.136;10.366;2023-02-11T04:09:15;-2.00;99.90
20432;DHT22;10375;49.136;10.366;2023-02-11T04:11:42;-2.00;99.90
20432;DHT22;10375;49.136;10.366;2023-02-11T04:14:09;-1.90;99.90
20432;DHT22;10375;49.136;10.366;2023-02-11T04:16:36;-1.90;99.90
20432;DHT22;10375;49.136;10.366;2023-02-11T04:19:03;-1.80;99.90
20432;DHT22;10375;49.136;10.366;2023-02-11T04:21:30;-1.80;99.90
20432;DHT22;10375;49.136;10.366;2023-02-11T04:23:57;-1.70;99.90
20432;DHT22;10375;49.136;10.366;2023-02-11T04:26:24;-1.60;99.90
20432;DHT22;10375;49.136;10.366;2023-02-11T04:28:51;-1.60;99.90
20432;DHT22;10375;49.136;10.366;2023-02-11T04:31:19;-1.60;99.90
20432;DHT22;10375;49.136;10.366;2023-02-11T04:33:46;-1.60;99.90
20432;DHT22;10375;49.136;10.366;2023-02-11T04:36:13;-1.60;99.90
20432;DHT22;10375;49.136;10.366;2023-02-11T04:38:40;-1.50;99.90
20432;DHT22;10375;49.136;10.366;2023-02-11T04:41:07;-1.40;99.90
20432;DHT22;10375;49.136;10.366;2023-02-11T04:43:34;-1.40;99.90
20432;DHT22;10375;49.136;10.366;2023-02-11T04:46:01;-1.30;99.90
20432;DHT22;10375;49.136;10.366;2023-02-11T04:48:28;-1.30;99.90
20432;DHT22;10375;49.136;10.366;2023-02-11T04:50:55;-1.40;99.90
20432;DHT22;10375;49.136;10.366;2023-02-11T04:53:22;-1.40;99.90
20432;DHT22;10375;49.136;10.366;2023-02-11T04:55:49;-1.40;99.90
20432;DHT22;10375;49.136;10.366;2023-02-11T04:58:18;-1.50;99.90
20432;DHT22;10375;49.136;10.366;2023-02-11T05:00:45;-1.40;99.90
20432;DHT22;10375;49.136;10.366;2023-02-11T05:03:12;-1.40;99.90
20432;DHT22;10375;49.136;10.366;2023-02-11T05:05:41;-1.40;99.90
20432;DHT22;10375;49.136;10.366;2023-02-11T05:08:10;-1.30;99.90
20432;DHT22;10375;49.136;10.366;2023-02-11T05:10:37;-1.20;99.90
20432;DHT22;10375;49.136;10.366;2023-02-11T05:13:04;-1.30;99.90
20432;DHT22;10375;49.136;10.366;2023-02-11T05:15:31;-1.20;99.90
20432;DHT22;10375;49.136;10.366;2023-02-11T05:17:58;-1.20;99.90
20432;DHT22;10375;49.136;10.366;2023-02-11T05:20:25;-1.10;99.90
20432;DHT22;10375;49.136;10.366;2023-02-11T05:22:53;-1.10;99.90
20432;DHT22;10375;49.136;10.366;2023-02-11T05:25:20;-1.10;99.90
20432;DHT22;10375;49.136;10.366;2023-02-11T05:27:48;-1.10;99.90
20432;DHT22;10375;49.136;10.366;2023-02-11T05:30:15;-1.00;99.90
20432;DHT22;10375;49.136;10.366;2023-02-11T05:32:42;-1.00;99.90
20432;DHT22;10375;49.136;10.366;2023-02-11T05:35:09;-0.90;99.90
20432;DHT22;10375;49.136;10.366;2023-02-11T05:37:36;-0.90;99.90
20432;DHT22;10375;49.136;10.366;2023-02-11T05:40:04;-0.90;99.90
20432;DHT22;10375;49.136;10.366;2023-02-11T05:42:33;-0.90;99.90
20432;DHT22;10375;49.136;10.366;2023-02-11T05:45:00;-0.80;99.90
20432;DHT22;10375;49.136;10.366;2023-02-11T05:47:28;-0.70;99.90
20432;DHT22;10375;49.136;10.366;2023-02-11T05:49:55;-0.70;99.90
20432;DHT22;10375;49.136;10.366;2023-02-11T05:52:23;-0.70;99.90
20432;DHT22;10375;49.136;10.366;2023-02-11T05:54:50;-0.60;99.90
20432;DHT22;10375;49.136;10.366;2023-02-11T05:57:17;-0.60;99.90
20432;DHT22;10375;49.136;10.366;2023-02-11T05:59:44;-0.60;99.90
20432;DHT22;10375;49.136;10.366;2023-02-11T06:02:11;-0.50;99.90
20432;DHT22;10375;49.136;10.366;2023-02-11T06:04:38;-0.50;99.90
20432;DHT22;10375;49.136;10.366;2023-02-11T06:07:06;-0.50;99.90
20432;DHT22;10375;49.136;10.366;2023-02-11T06:09:33;-0.50;99.90
20432;DHT22;10375;49.136;10.366;2023-02-11T06:12:00;-0.50;99.90
20432;DHT22;10375;49.136;10.366;2023-02-11T06:14:27;-0.40;99.90
20432;DHT22;10375;49.136;10.366;2023-02-11T06:16:53;-0.30;99.90
20432;DHT22;10375;49.136;10.366;2023-02-11T06:19:20;-0.30;99.90
20432;DHT22;10375;49.136;10.366;2023-02-11T06:21:47;-0.40;99.90
20432;DHT22;10375;49.136;10.366;2023-02-11T06:24:14;-0.30;99.90
20432;DHT22;10375;49.136;10.366;2023-02-11T06:27:03;-0.20;99.90
20432;DHT22;10375;49.136;10.366;2023-02-11T06:29:30;-0.20;99.90
20432;DHT22;10375;49.136;10.366;2023-02-11T06:31:57;-0.20;99.90
20432;DHT22;10375;49.136;10.366;2023-02-11T06:34:26;-0.20;99.90
20432;DHT22;10375;49.136;10.366;2023-02-11T06:36:53;-0.10;99.90
20432;DHT22;10375;49.136;10.366;2023-02-11T06:39:20;-0.10;99.90
20432;DHT22;10375;49.136;10.366;2023-02-11T06:41:47;-0.10;99.90
20432;DHT22;10375;49.136;10.366;2023-02-11T06:44:14;-0.10;99.90
20432;DHT22;10375;49.136;10.366;2023-02-11T06:46:41;-0.10;99.90
20432;DHT22;10375;49.136;10.366;2023-02-11T06:49:08;0.00;99.90
20432;DHT22;10375;49.136;10.366;2023-02-11T06:51:36;0.00;99.90
20432;DHT22;10375;49.136;10.366;2023-02-11T06:54:04;0.00;99.90
20432;DHT22;10375;49.136;10.366;2023-02-11T06:56:32;0.10;99.90
20432;DHT22;10375;49.136;10.366;2023-02-11T06:58:59;0.00;99.90
20432;DHT22;10375;49.136;10.366;2023-02-11T07:01:27;0.20;99.90
20432;DHT22;10375;49.136;10.366;2023-02-11T07:03:55;0.20;99.90
20432;DHT22;10375;49.136;10.366;2023-02-11T07:06:24;0.20;99.90
20432;DHT22;10375;49.136;10.366;2023-02-11T07:08:54;0.40;99.90
20432;DHT22;10375;49.136;10.366;2023-02-11T07:11:24;0.50;99.90
20432;DHT22;10375;49.136;10.366;2023-02-11T07:13:55;0.50;99.90
20432;DHT22;10375;49.136;10.366;2023-02-11T07:16:23;0.50;99.90
20432;DHT22;10375;49.136;10.366;2023-02-11T07:18:50;0.50;99.90
20432;DHT22;10375;49.136;10.366;2023-02-11T07:21:19;0.50;99.90
20432;DHT22;10375;49.136;10.366;2023-02-11T07:23:47;0.60;99.90
20432;DHT22;10375;49.136;10.366;2023-02-11T07:26:17;0.60;99.90
20432;DHT22;10375;49.136;10.366;2023-02-11T07:28:45;0.60;99.90
20432;DHT22;10375;49.136;10.366;2023-02-11T07:31:22;0.70;99.90
20432;DHT22;10375;49.136;10.366;2023-02-11T07:33:51;0.70;99.90
20432;DHT22;10375;49.136;10.366;2023-02-11T07:36:19;0.80;99.90
20432;DHT22;10375;49.136;10.366;2023-02-11T07:38:46;0.80;99.90
20432;DHT22;10375;49.136;10.366;2023-02-11T07:41:16;0.90;99.90
20432;DHT22;10375;49.136;10.366;2023-02-11T07:43:44;1.10;99.90
20432;DHT22;10375;49.136;10.366;2023-02-11T07:46:20;1.10;99.90
20432;DHT22;10375;49.136;10.366;2023-02-11T07:48:47;1.20;99.90
20432;DHT22;10375;49.136;10.366;2023-02-11T07:53:45;1.30;99.90
20432;DHT22;10375;49.136;10.366;2023-02-11T07:56:13;1.40;99.90
20432;DHT22;10375;49.136;10.366;2023-02-11T07:58:41;1.50;99.90
20432;DHT22;10375;49.136;10.366;2023-02-11T08:01:12;1.50;99.90
20432;DHT22;10375;49.136;10.366;2023-02-11T08:03:40;1.70;99.90
20432;DHT22;10375;49.136;10.366;2023-02-11T08:06:13;1.80;99.90
20432;DHT22;10375;49.136;10.366;2023-02-11T08:08:41;1.80;99.90
20432;DHT22;10375;49.136;10.366;2023-02-11T08:11:11;1.90;99.90
20432;DHT22;10375;49.136;10.366;2023-02-11T08:13:39;2.00;99.90
20432;DHT22;10375;49.136;10.366;2023-02-11T08:16:06;2.10;99.90
20432;DHT22;10375;49.136;10.366;2023-02-11T08:18:35;2.20;99.90
20432;DHT22;10375;49.136;10.366;2023-02-11T08:21:09;2.40;99.90
20432;DHT22;10375;49.136;10.366;2023-02-11T08:23:37;2.60;99.90
20432;DHT22;10375;49.136;10.366;2023-02-11T08:26:08;2.70;99.90
20432;DHT22;10375;49.136;10.366;2023-02-11T08:28:37;2.80;99.90
20432;DHT22;10375;49.136;10.366;2023-02-11T08:31:09;2.90;99.90
20432;DHT22;10375;49.136;10.366;2023-02-11T08:33:36;3.10;99.90
20432;DHT22;10375;49.136;10.366;2023-02-11T08:36:17;3.20;99.90
20432;DHT22;10375;49.136;10.366;2023-02-11T08:38:45;3.30;99.90
20432;DHT22;10375;49.136;10.366;2023-02-11T08:41:12;3.50;99.90
20432;DHT22;10375;49.136;10.366;2023-02-11T08:43:44;3.60;99.90
20432;DHT22;10375;49.136;10.366;2023-02-11T08:46:14;3.70;99.90
20432;DHT22;10375;49.136;10.366;2023-02-11T08:48:41;3.60;99.90
20432;DHT22;10375;49.136;10.366;2023-02-11T08:51:13;3.70;99.90
20432;DHT22;10375;49.136;10.366;2023-02-11T08:53:40;3.80;99.90
20432;DHT22;10375;49.136;10.366;2023-02-11T08:56:09;3.90;99.90
20432;DHT22;10375;49.136;10.366;2023-02-11T08:58:39;4.00;99.90
20432;DHT22;10375;49.136;10.366;2023-02-11T09:01:17;4.00;99.90
20432;DHT22;10375;49.136;10.366;2023-02-11T09:03:48;3.80;99.90
20432;DHT22;10375;49.136;10.366;2023-02-11T09:06:22;3.80;99.90
20432;DHT22;10375;49.136;10.366;2023-02-11T09:08:52;3.80;99.90
20432;DHT22;10375;49.136;10.366;2023-02-11T09:11:25;4.00;99.90
20432;DHT22;10375;49.136;10.366;2023-02-11T09:13:55;4.40;99.90
20432;DHT22;10375;49.136;10.366;2023-02-11T09:16:28;5.10;99.90
20432;DHT22;10375;49.136;10.366;2023-02-11T09:18:59;5.60;99.90
20432;DHT22;10375;49.136;10.366;2023-02-11T09:21:28;5.70;99.90
20432;DHT22;10375;49.136;10.366;2023-02-11T09:23:56;5.80;99.90
20432;DHT22;10375;49.136;10.366;2023-02-11T09:26:26;5.80;99.90
20432;DHT22;10375;49.136;10.366;2023-02-11T09:28:54;5.90;99.90
20432;DHT22;10375;49.136;10.366;2023-02-11T09:31:24;6.10;99.90
20432;DHT22;10375;49.136;10.366;2023-02-11T09:33:55;6.20;99.90
20432;DHT22;10375;49.136;10.366;2023-02-11T09:36:26;6.30;99.90
20432;DHT22;10375;49.136;10.366;2023-02-11T09:38:56;6.30;99.90
20432;DHT22;10375;49.136;10.366;2023-02-11T09:41:32;6.10;99.90
20432;DHT22;10375;49.136;10.366;2023-02-11T09:44:04;5.90;99.90
20432;DHT22;10375;49.136;10.366;2023-02-11T09:46:38;5.50;99.90
20432;DHT22;10375;49.136;10.366;2023-02-11T09:49:09;5.50;99.90
20432;DHT22;10375;49.136;10.366;2023-02-11T09:54:38;5.80;99.90
20432;DHT22;10375;49.136;10.366;2023-02-11T09:57:09;5.90;99.90
20432;DHT22;10375;49.136;10.366;2023-02-11T09:59:55;6.10;99.90
20432;DHT22;10375;49.136;10.366;2023-02-11T10:02:31;6.30;99.90
20432;DHT22;10375;49.136;10.366;2023-02-11T10:08:15;6.70;99.90
20432;DHT22;10375;49.136;10.366;2023-02-11T10:11:07;6.90;99.90
20432;DHT22;10375;49.136;10.366;2023-02-11T10:16:32;6.90;99.90
20432;DHT22;10375;49.136;10.366;2023-02-11T10:21:55;6.90;99.90
20432;DHT22;10375;49.136;10.366;2023-02-11T10:24:24;6.90;99.90
20432;DHT22;10375;49.136;10.366;2023-02-11T10:26:54;6.90;99.90
20432;DHT22;10375;49.136;10.366;2023-02-11T10:29:35;6.80;99.90
20432;DHT22;10375;49.136;10.366;2023-02-11T10:32:22;6.90;99.90
20432;DHT22;10375;49.136;10.366;2023-02-11T10:34:55;6.80;99.90
20432;DHT22;10375;49.136;10.366;2023-02-11T10:37:24;6.90;99.90
20432;DHT22;10375;49.136;10.366;2023-02-11T10:39:51;7.20;99.90
20432;DHT22;10375;49.136;10.366;2023-02-11T10:42:18;7.40;99.90
20432;DHT22;10375;49.136;10.366;2023-02-11T10:45:06;7.80;99.90
20432;DHT22;10375;49.136;10.366;2023-02-11T10:47:37;8.10;99.90
20432;DHT22;10375;49.136;10.366;2023-02-11T10:52:49;8.20;99.90
20432;DHT22;10375;49.136;10.366;2023-02-11T10:55:23;8.30;99.90
20432;DHT22;10375;49.136;10.366;2023-02-11T10:57:55;8.20;99.90
20432;DHT22;10375;49.136;10.366;2023-02-11T11:02:59;8.20;99.90
20432;DHT22;10375;49.136;10.366;2023-02-11T11:05:44;8.00;99.90
20432;DHT22;10375;49.136;10.366;2023-02-11T11:08:12;8.00;99.90
20432;DHT22;10375;49.136;10.366;2023-02-11T11:11:09;8.20;99.90
20432;DHT22;10375;49.136;10.366;2023-02-11T11:13:39;8.40;99.90
20432;DHT22;10375;49.136;10.366;2023-02-11T11:18:40;8.20;99.90
20432;DHT22;10375;49.136;10.366;2023-02-11T11:21:20;8.00;99.90
20432;DHT22;10375;49.136;10.366;2023-02-11T11:24:37;8.20;99.90
20432;DHT22;10375;49.136;10.366;2023-02-11T11:26:43;8.30;99.90
20432;DHT22;10375;49.136;10.366;2023-02-11T11:31:50;8.60;99.90
20432;DHT22;10375;49.136;10.366;2023-02-11T11:34:26;8.60;99.90
20432;DHT22;10375;49.136;10.366;2023-02-11T11:36:55;8.80;99.90
20432;DHT22;10375;49.136;10.366;2023-02-11T11:39:30;8.90;99.90
20432;DHT22;10375;49.136;10.366;2023-02-11T11:41:59;9.00;99.90
20432;DHT22;10375;49.136;10.366;2023-02-11T11:49:40;9.00;99.90
20432;DHT22;10375;49.136;10.366;2023-02-11T11:55:19;9.20;99.90
20432;DHT22;10375;49.136;10.366;2023-02-11T11:57:47;9.60;99.90
20432;DHT22;10375;49.136;10.366;2023-02-11T12:00:28;9.90;99.90
20432;DHT22;10375;49.136;10.366;2023-02-11T12:03:16;10.00;99.90
20432;DHT22;10375;49.136;10.366;2023-02-11T12:22:22;8.20;99.90
20432;DHT22;10375;49.136;10.366;2023-02-11T12:30:44;8.10;99.90
20432;DHT22;10375;49.136;10.366;2023-02-11T12:36:23;7.80;99.90
20432;DHT22;10375;49.136;10.366;2023-02-11T12:51:31;7.30;99.90
20432;DHT22;10375;49.136;10.366;2023-02-11T12:56:56;7.10;99.90
20432;DHT22;10375;49.136;10.366;2023-02-11T13:02:28;7.10;99.90
20432;DHT22;10375;49.136;10.366;2023-02-11T13:05:47;7.10;99.90
20432;DHT22;10375;49.136;10.366;2023-02-11T13:07:49;7.10;99.90
20432;DHT22;10375;49.136;10.366;2023-02-11T13:10:23;7.10;99.90
20432;DHT22;10375;49.136;10.366;2023-02-11T13:12:52;7.10;99.90
20432;DHT22;10375;49.136;10.366;2023-02-11T13:15:41;7.10;99.90
20432;DHT22;10375;49.136;10.366;2023-02-11T13:18:21;7.10;99.90
20432;DHT22;10375;49.136;10.366;2023-02-11T13:21:15;7.00;99.90
20432;DHT22;10375;49.136;10.366;2023-02-11T13:23:48;6.90;99.90
20432;DHT22;10375;49.136;10.366;2023-02-11T13:26:56;6.80;99.90
20432;DHT22;10375;49.136;10.366;2023-02-11T13:32:23;6.60;99.90
20432;DHT22;10375;49.136;10.366;2023-02-11T13:37:37;6.50;99.90
20432;DHT22;10375;49.136;10.366;2023-02-11T13:40:19;6.40;99.90
20432;DHT22;10375;49.136;10.366;2023-02-11T13:42:58;6.30;99.90
20432;DHT22;10375;49.136;10.366;2023-02-11T13:45:42;6.20;99.90
20432;DHT22;10375;49.136;10.366;2023-02-11T13:51:15;6.00;99.90
20432;DHT22;10375;49.136;10.366;2023-02-11T13:53:54;6.00;99.90
20432;DHT22;10375;49.136;10.366;2023-02-11T13:56:39;6.00;99.90
20432;DHT22;10375;49.136;10.366;2023-02-11T14:02:30;6.00;99.90
20432;DHT22;10375;49.136;10.366;2023-02-11T14:10:56;6.00;99.90
20432;DHT22;10375;49.136;10.366;2023-02-11T14:13:25;6.00;99.90
20432;DHT22;10375;49.136;10.366;2023-02-11T14:23:43;6.10;99.90
20432;DHT22;10375;49.136;10.366;2023-02-11T14:29:02;6.20;99.90
20432;DHT22;10375;49.136;10.366;2023-02-11T14:32:04;6.20;99.90
20432;DHT22;10375;49.136;10.366;2023-02-11T14:42:47;6.20;99.90
20432;DHT22;10375;49.136;10.366;2023-02-11T14:45:20;6.20;99.90
20432;DHT22;10375;49.136;10.366;2023-02-11T14:50:45;6.20;99.90
20432;DHT22;10375;49.136;10.366;2023-02-11T14:53:21;6.10;99.90
20432;DHT22;10375;49.136;10.366;2023-02-11T14:55:52;6.10;99.90
20432;DHT22;10375;49.136;10.366;2023-02-11T14:58:25;6.00;99.90
20432;DHT22;10375;49.136;10.366;2023-02-11T15:03:28;5.80;99.90
20432;DHT22;10375;49.136;10.366;2023-02-11T15:06:21;5.70;99.90
20432;DHT22;10375;49.136;10.366;2023-02-11T15:08:59;5.70;99.90
20432;DHT22;10375;49.136;10.366;2023-02-11T15:11:30;5.70;99.90
20432;DHT22;10375;49.136;10.366;2023-02-11T15:14:06;5.70;99.90
20432;DHT22;10375;49.136;10.366;2023-02-11T15:16:33;5.70;99.90
20432;DHT22;10375;49.136;10.366;2023-02-11T15:19:18;5.70;99.90
20432;DHT22;10375;49.136;10.366;2023-02-11T15:21:47;5.60;99.90
20432;DHT22;10375;49.136;10.366;2023-02-11T15:24:26;5.60;99.90
20432;DHT22;10375;49.136;10.366;2023-02-11T15:27:10;5.50;99.90
20432;DHT22;10375;49.136;10.366;2023-02-11T15:29:45;5.50;99.90
20432;DHT22;10375;49.136;10.366;2023-02-11T15:32:24;5.60;99.90
20432;DHT22;10375;49.136;10.366;2023-02-11T15:34:52;5.60;99.90
20432;DHT22;10375;49.136;10.366;2023-02-11T15:37:28;5.60;99.90
20432;DHT22;10375;49.136;10.366;2023-02-11T15:40:17;5.60;99.90
20432;DHT22;10375;49.136;10.366;2023-02-11T15:43:04;5.60;99.90
20432;DHT22;10375;49.136;10.366;2023-02-11T15:45:51;5.60;99.90
20432;DHT22;10375;49.136;10.366;2023-02-11T15:48:24;5.60;99.90
20432;DHT22;10375;49.136;10.366;2023-02-11T15:51:01;5.50;99.90
20432;DHT22;10375;49.136;10.366;2023-02-11T15:53:36;5.40;99.90
20432;DHT22;10375;49.136;10.366;2023-02-11T15:56:25;5.30;99.90
20432;DHT22;10375;49.136;10.366;2023-02-11T15:58:58;5.30;99.90
20432;DHT22;10375;49.136;10.366;2023-02-11T16:01:31;5.20;99.90
20432;DHT22;10375;49.136;10.366;2023-02-11T16:04:03;5.10;99.90
20432;DHT22;10375;49.136;10.366;2023-02-11T16:06:39;5.10;99.90
20432;DHT22;10375;49.136;10.366;2023-02-11T16:17:25;4.90;99.90
20432;DHT22;10375;49.136;10.366;2023-02-11T16:19:53;4.80;99.90
20432;DHT22;10375;49.136;10.366;2023-02-11T16:22:26;4.80;99.90
20432;DHT22;10375;49.136;10.366;2023-02-11T16:24:58;4.80;99.90
20432;DHT22;10375;49.136;10.366;2023-02-11T16:27:28;4.70;99.90
20432;DHT22;10375;49.136;10.366;2023-02-11T16:29:58;4.70;99.90
20432;DHT22;10375;49.136;10.366;2023-02-11T16:32:29;4.70;99.90
20432;DHT22;10375;49.136;10.366;2023-02-11T16:34:58;4.60;99.90
20432;DHT22;10375;49.136;10.366;2023-02-11T16:37:26;4.60;99.90
20432;DHT22;10375;49.136;10.366;2023-02-11T16:39:55;4.60;99.90
20432;DHT22;10375;49.136;10.366;2023-02-11T16:42:25;4.60;99.90
20432;DHT22;10375;49.136;10.366;2023-02-11T16:44:54;4.60;99.90
20432;DHT22;10375;49.136;10.366;2023-02-11T16:47:26;4.50;99.90
20432;DHT22;10375;49.136;10.366;2023-02-11T16:49:54;4.50;99.90
20432;DHT22;10375;49.136;10.366;2023-02-11T16:52:22;4.50;99.90
20432;DHT22;10375;49.136;10.366;2023-02-11T16:54:51;4.40;99.90
20432;DHT22;10375;49.136;10.366;2023-02-11T16:57:25;4.40;99.90
20432;DHT22;10375;49.136;10.366;2023-02-11T16:59:56;4.40;99.90
20432;DHT22;10375;49.136;10.366;2023-02-11T17:02:30;4.40;99.90
20432;DHT22;10375;49.136;10.366;2023-02-11T17:05:02;4.40;99.90
20432;DHT22;10375;49.136;10.366;2023-02-11T17:07:29;4.30;99.90
20432;DHT22;10375;49.136;10.366;2023-02-11T17:09:56;4.30;99.90
20432;DHT22;10375;49.136;10.366;2023-02-11T17:12:23;4.30;99.90
20432;DHT22;10375;49.136;10.366;2023-02-11T17:14:51;4.20;99.90
20432;DHT22;10375;49.136;10.366;2023-02-11T17:17:18;4.30;99.90
20432;DHT22;10375;49.136;10.366;2023-02-11T17:19:47;4.30;99.90
20432;DHT22;10375;49.136;10.366;2023-02-11T17:22:14;4.20;99.90
20432;DHT22;10375;49.136;10.366;2023-02-11T17:24:41;4.20;99.90
20432;DHT22;10375;49.136;10.366;2023-02-11T17:27:10;4.30;99.90
20432;DHT22;10375;49.136;10.366;2023-02-11T17:29:37;4.30;99.90
20432;DHT22;10375;49.136;10.366;2023-02-11T17:32:04;4.30;99.90
20432;DHT22;10375;49.136;10.366;2023-02-11T17:34:31;4.30;99.90
20432;DHT22;10375;49.136;10.366;2023-02-11T17:36:58;4.20;99.90
20432;DHT22;10375;49.136;10.366;2023-02-11T17:39:28;4.20;99.90
20432;DHT22;10375;49.136;10.366;2023-02-11T17:41:59;4.10;99.90
20432;DHT22;10375;49.136;10.366;2023-02-11T17:44:27;4.10;99.90
20432;DHT22;10375;49.136;10.366;2023-02-11T17:46:55;4.10;99.90
20432;DHT22;10375;49.136;10.366;2023-02-11T17:49:22;4.10;99.90
20432;DHT22;10375;49.136;10.366;2023-02-11T17:51:56;4.00;99.90
20432;DHT22;10375;49.136;10.366;2023-02-11T17:54:23;4.00;99.90
20432;DHT22;10375;49.136;10.366;2023-02-11T17:56:52;4.00;99.90
20432;DHT22;10375;49.136;10.366;2023-02-11T17:59:23;4.00;99.90
20432;DHT22;10375;49.136;10.366;2023-02-11T18:01:53;4.00;99.90
20432;DHT22;10375;49.136;10.366;2023-02-11T18:04:20;4.00;99.90
20432;DHT22;10375;49.136;10.366;2023-02-11T18:06:47;4.00;99.90
20432;DHT22;10375;49.136;10.366;2023-02-11T18:09:16;4.00;99.90
20432;DHT22;10375;49.136;10.366;2023-02-11T18:11:43;4.00;99.90
20432;DHT22;10375;49.136;10.366;2023-02-11T18:14:11;4.00;99.90
20432;DHT22;10375;49.136;10.366;2023-02-11T18:16:38;4.00;99.90
20432;DHT22;10375;49.136;10.366;2023-02-11T18:19:09;4.00;99.90
20432;DHT22;10375;49.136;10.366;2023-02-11T18:21:37;4.00;99.90
20432;DHT22;10375;49.136;10.366;2023-02-11T18:24:04;4.00;99.90
20432;DHT22;10375;49.136;10.366;2023-02-11T18:26:33;4.00;99.90
20432;DHT22;10375;49.136;10.366;2023-02-11T18:29:01;4.00;99.90
20432;DHT22;10375;49.136;10.366;2023-02-11T18:31:29;4.00;99.90
20432;DHT22;10375;49.136;10.366;2023-02-11T18:33:57;4.00;99.90